sensor_id;sensor_type;location;lat;lon;timestamp;temperature;humidity
1806;DHT22;901;48.142;11.516;2023-05-01T00:01:31;10.10;99.90
1806;DHT22;901;48.142;11.516;2023-05-01T00:03:58;10.10;99.90
1806;DHT22;901;48.142;11.516;2023-05-01T00:06:25;10.10;99.90
1806;DHT22;901;48.142;11.516;2023-05-01T00:08:53;10.10;99.90
1806;DHT22;901;48.142;11.516;2023-05-01T00:11:20;10.20;99.90
1806;DHT22;901;48.142;11.516;2023-05-01T00:13:47;10.90;99.90
1806;DHT22;901;48.142;11.516;2023-05-01T00:16:14;10.10;99.90
1806;DHT22;901;48.142;11.516;2023-05-01T00:18:42;10.10;99.90
1806;DHT22;901;48.142;11.516;2023-05-01T00:21:09;10.10;99.90
1806;DHT22;901;48.142;11.516;2023-05-01T00:23:35;10.10;99.90
1806;DHT22;901;48.142;11.516;2023-05-01T00:26:04;10.00;99.90
1806;DHT22;901;48.142;11.516;2023-05-01T00:28:30;9.90;99.90
1806;DHT22;901;48.142;11.516;2023-05-01T00:30:57;10.50;99.90
1806;DHT22;901;48.142;11.516;2023-05-01T00:33:24;9.90;99.90
1806;DHT22;901;48.142;11.516;2023-05-01T00:35:51;9.90;99.90
1806;DHT22;901;48.142;11.516;2023-05-01T00:38:18;9.90;99.90
1806;DHT22;901;48.142;11.516;2023-05-01T00:40:45;9.80;99.90
1806;DHT22;901;48.142;11.516;2023-05-01T00:43:13;9.90;99.90
1806;DHT22;901;48.142;11.516;2023-05-01T00:45:44;9.80;99.90
1806;DHT22;901;48.142;11.516;2023-05-01T00:48:11;9.80;99.90
1806;DHT22;901;48.142;11.516;2023-05-01T00:50:38;9.70;99.90
1806;DHT22;901;48.142;11.516;2023-05-01T00:53:06;9.70;99.90
1806;DHT22;901;48.142;11.516;2023-05-01T00:55:34;9.80;99.90
1806;DHT22;901;48.142;11.516;2023-05-01T00:58:02;9.70;99.90
1806;DHT22;901;48.142;11.516;2023-05-01T01:00:30;10.50;99.90
1806;DHT22;901;48.142;11.516;2023-05-01T01:02:57;9.60;99.90
1806;DHT22;901;48.142;11.516;2023-05-01T01:05:27;9.60;99.90
1806;DHT22;901;48.142;11.516;2023-05-01T01:08:04;9.50;99.90
1806;DHT22;901;48.142;11.516;2023-05-01T01:10:46;9.50;99.90
1806;DHT22;901;48.142;11.516;2023-05-01T01:13:21;9.50;99.90
1806;DHT22;901;48.142;11.516;2023-05-01T01:15:58;9.50;99.90
1806;DHT22;901;48.142;11.516;2023-05-01T01:18:34;9.40;99.90
1806;DHT22;901;48.142;11.516;2023-05-01T01:21:07;9.40;99.90
1806;DHT22;901;48.142;11.516;2023-05-01T01:27:15;9.40;99.90
1806;DHT22;901;48.142;11.516;2023-05-01T01:30:00;9.30;99.90
1806;DHT22;901;48.142;11.516;2023-05-01T01:32:48;9.20;99.90
1806;DHT22;901;48.142;11.516;2023-05-01T01:35:25;9.20;99.90
1806;DHT22;901;48.142;11.516;2023-05-01T01:37:59;9.10;99.90
1806;DHT22;901;48.142;11.516;2023-05-01T01:40:32;9.10;99.90
1806;DHT22;901;48.142;11.516;2023-05-01T01:43:04;9.10;99.90
1806;DHT22;901;48.142;11.516;2023-05-01T01:45:36;9.20;99.90
1806;DHT22;901;48.142;11.516;2023-05-01T01:48:06;9.10;99.90
1806;DHT22;901;48.142;11.516;2023-05-01T01:50:36;9.10;99.90
1806;DHT22;901;48.142;11.516;2023-05-01T01:53:05;9.00;99.90
1806;DHT22;901;48.142;11.516;2023-05-01T01:55:33;9.00;99.90
1806;DHT22;901;48.142;11.516;2023-05-01T01:58:01;9.00;99.90
1806;DHT22;901;48.142;11.516;2023-05-01T02:00:29;8.90;99.90
1806;DHT22;901;48.142;11.516;2023-05-01T02:02:58;8.90;99.90
1806;DHT22;901;48.142;11.516;2023-05-01T02:05:26;8.90;99.90
1806;DHT22;901;48.142;11.516;2023-05-01T02:07:56;8.80;99.90
1806;DHT22;901;48.142;11.516;2023-05-01T02:10:23;8.90;99.90
1806;DHT22;901;48.142;11.516;2023-05-01T02:12:53;8.80;99.90
1806;DHT22;901;48.142;11.516;2023-05-01T02:15:21;8.80;99.90
1806;DHT22;901;48.142;11.516;2023-05-01T02:17:49;8.70;99.90
1806;DHT22;901;48.142;11.516;2023-05-01T02:20:17;8.70;99.90
1806;DHT22;901;48.142;11.516;2023-05-01T02:22:45;7.80;99.90
1806;DHT22;901;48.142;11.516;2023-05-01T02:25:14;8.80;99.90
1806;DHT22;901;48.142;11.516;2023-05-01T02:27:45;8.70;99.90
1806;DHT22;901;48.142;11.516;2023-05-01T02:30:13;8.60;99.90
1806;DHT22;901;48.142;11.516;2023-05-01T02:32:40;8.50;99.90
1806;DHT22;901;48.142;11.516;2023-05-01T02:35:07;8.50;99.90
1806;DHT22;901;48.142;11.516;2023-05-01T02:37:35;8.60;99.90
1806;DHT22;901;48.142;11.516;2023-05-01T02:40:03;8.50;99.90
1806;DHT22;901;48.142;11.516;2023-05-01T02:42:31;8.50;99.90
1806;DHT22;901;48.142;11.516;2023-05-01T02:45:02;8.40;99.90
1806;DHT22;901;48.142;11.516;2023-05-01T02:47:32;8.40;99.90
1806;DHT22;901;48.142;11.516;2023-05-01T02:50:00;8.40;99.90
1806;DHT22;901;48.142;11.516;2023-05-01T02:52:28;8.40;99.90
1806;DHT22;901;48.142;11.516;2023-05-01T02:54:56;8.40;99.90
1806;DHT22;901;48.142;11.516;2023-05-01T02:57:23;8.40;99.90
1806;DHT22;901;48.142;11.516;2023-05-01T02:59:51;8.40;99.90
1806;DHT22;901;48.142;11.516;2023-05-01T03:02:18;8.30;99.90
1806;DHT22;901;48.142;11.516;2023-05-01T03:04:44;8.20;99.90
1806;DHT22;901;48.142;11.516;2023-05-01T03:07:11;8.30;99.90
1806;DHT22;901;48.142;11.516;2023-05-01T03:09:40;8.20;99.90
1806;DHT22;901;48.142;11.516;2023-05-01T03:12:06;8.30;99.90
1806;DHT22;901;48.142;11.516;2023-05-01T03:14:33;8.20;99.90
1806;DHT22;901;48.142;11.516;2023-05-01T03:17:01;8.30;99.90
1806;DHT22;901;48.142;11.516;2023-05-01T03:19:28;8.20;99.90
1806;DHT22;901;48.142;11.516;2023-05-01T03:21:55;8.20;99.90
1806;DHT22;901;48.142;11.516;2023-05-01T03:24:23;8.20;99.90
1806;DHT22;901;48.142;11.516;2023-05-01T03:26:49;8.20;99.90
1806;DHT22;901;48.142;11.516;2023-05-01T03:29:16;8.20;99.90
1806;DHT22;901;48.142;11.516;2023-05-01T03:31:43;8.20;99.90
1806;DHT22;901;48.142;11.516;2023-05-01T03:34:11;8.20;99.90
1806;DHT22;901;48.142;11.516;2023-05-01T03:36:38;8.20;99.90
1806;DHT22;901;48.142;11.516;2023-05-01T03:39:05;8.30;99.90
1806;DHT22;901;48.142;11.516;2023-05-01T03:41:33;8.30;99.90
1806;DHT22;901;48.142;11.516;2023-05-01T03:44:00;8.30;99.90
1806;DHT22;901;48.142;11.516;2023-05-01T03:46:26;8.30;99.90
1806;DHT22;901;48.142;11.516;2023-05-01T03:48:53;8.30;99.90
1806;DHT22;901;48.142;11.516;2023-05-01T03:51:21;8.30;99.90
1806;DHT22;901;48.142;11.516;2023-05-01T03:53:48;8.20;99.90
1806;DHT22;901;48.142;11.516;2023-05-01T03:56:15;8.20;99.90
1806;DHT22;901;48.142;11.516;2023-05-01T03:58:42;8.10;99.90
1806;DHT22;901;48.142;11.516;2023-05-01T04:01:09;8.10;99.90
1806;DHT22;901;48.142;11.516;2023-05-01T04:03:36;8.10;99.90
1806;DHT22;901;48.142;11.516;2023-05-01T04:06:03;8.20;99.90
1806;DHT22;901;48.142;11.516;2023-05-01T04:08:31;8.20;99.90
1806;DHT22;901;48.142;11.516;2023-05-01T04:10:58;8.20;99.90
1806;DHT22;901;48.142;11.516;2023-05-01T04:13:25;8.30;99.90
1806;DHT22;901;48.142;11.516;2023-05-01T04:15:52;8.40;99.90
1806;DHT22;901;48.142;11.516;2023-05-01T04:18:20;8.50;99.90
1806;DHT22;901;48.142;11.516;2023-05-01T04:20:47;8.50;99.90
1806;DHT22;901;48.142;11.516;2023-05-01T04:23:13;8.50;99.90
1806;DHT22;901;48.142;11.516;2023-05-01T04:25:43;8.60;99.90
1806;DHT22;901;48.142;11.516;2023-05-01T04:28:10;8.60;99.90
1806;DHT22;901;48.142;11.516;2023-05-01T04:30:38;8.80;99.90
1806;DHT22;901;48.142;11.516;2023-05-01T04:33:04;8.80;99.90
1806;DHT22;901;48.142;11.516;2023-05-01T04:35:35;9.00;99.90
1806;DHT22;901;48.142;11.516;2023-05-01T04:38:03;9.00;99.90
1806;DHT22;901;48.142;11.516;2023-05-01T04:40:30;9.20;99.90
1806;DHT22;901;48.142;11.516;2023-05-01T04:42:58;9.30;99.90
1806;DHT22;901;48.142;11.516;2023-05-01T04:45:25;9.20;99.90
1806;DHT22;901;48.142;11.516;2023-05-01T04:47:52;9.40;99.90
1806;DHT22;901;48.142;11.516;2023-05-01T04:50:18;9.50;99.90
1806;DHT22;901;48.142;11.516;2023-05-01T04:52:45;9.70;99.90
1806;DHT22;901;48.142;11.516;2023-05-01T04:55:12;9.80;99.90
1806;DHT22;901;48.142;11.516;2023-05-01T04:57:39;10.10;99.90
1806;DHT22;901;48.142;11.516;2023-05-01T05:00:08;10.30;99.90
1806;DHT22;901;48.142;11.516;2023-05-01T05:02:35;10.60;99.90
1806;DHT22;901;48.142;11.516;2023-05-01T05:05:02;10.70;99.90
1806;DHT22;901;48.142;11.516;2023-05-01T05:07:29;10.80;99.90
1806;DHT22;901;48.142;11.516;2023-05-01T05:09:55;10.90;99.90
1806;DHT22;901;48.142;11.516;2023-05-01T05:12:22;10.80;99.90
1806;DHT22;901;48.142;11.516;2023-05-01T05:14:49;10.80;99.90
1806;DHT22;901;48.142;11.516;2023-05-01T05:17:17;10.80;99.90
1806;DHT22;901;48.142;11.516;2023-05-01T05:19:44;11.10;99.90
1806;DHT22;901;48.142;11.516;2023-05-01T05:22:11;11.00;99.90
1806;DHT22;901;48.142;11.516;2023-05-01T05:24:38;11.20;99.90
1806;DHT22;901;48.142;11.516;2023-05-01T05:27:04;11.40;99.90
1806;DHT22;901;48.142;11.516;2023-05-01T05:29:31;11.60;99.90
1806;DHT22;901;48.142;11.516;2023-05-01T05:31:59;11.90;99.90
1806;DHT22;901;48.142;11.516;2023-05-01T05:34:27;12.30;99.90
1806;DHT22;901;48.142;11.516;2023-05-01T05:36:54;12.60;99.90
1806;DHT22;901;48.142;11.516;2023-05-01T05:39:21;12.90;99.90
1806;DHT22;901;48.142;11.516;2023-05-01T05:41:48;13.00;99.90
1806;DHT22;901;48.142;11.516;2023-05-01T05:44:15;13.10;99.90
1806;DHT22;901;48.142;11.516;2023-05-01T05:46:41;13.50;99.90
1806;DHT22;901;48.142;11.516;2023-05-01T05:49:08;13.80;99.90
1806;DHT22;901;48.142;11.516;2023-05-01T05:51:36;14.10;99.90
1806;DHT22;901;48.142;11.516;2023-05-01T05:54:03;14.30;99.90
1806;DHT22;901;48.142;11.516;2023-05-01T05:56:30;14.40;99.90
1806;DHT22;901;48.142;11.516;2023-05-01T05:58:56;14.30;99.90
1806;DHT22;901;48.142;11.516;2023-05-01T06:01:27;14.40;99.90
1806;DHT22;901;48.142;11.516;2023-05-01T06:03:54;14.40;99.90
1806;DHT22;901;48.142;11.516;2023-05-01T06:06:21;14.40;99.90
1806;DHT22;901;48.142;11.516;2023-05-01T06:08:49;14.30;99.90
1806;DHT22;901;48.142;11.516;2023-05-01T06:11:16;14.40;99.90
1806;DHT22;901;48.142;11.516;2023-05-01T06:13:43;14.50;99.90
1806;DHT22;901;48.142;11.516;2023-05-01T06:16:09;14.50;99.90
1806;DHT22;901;48.142;11.516;2023-05-01T06:18:36;14.50;99.90
1806;DHT22;901;48.142;11.516;2023-05-01T06:21:03;14.60;99.90
1806;DHT22;901;48.142;11.516;2023-05-01T06:23:30;14.40;99.90
1806;DHT22;901;48.142;11.516;2023-05-01T06:25:59;14.20;99.90
1806;DHT22;901;48.142;11.516;2023-05-01T06:28:26;14.30;99.90
1806;DHT22;901;48.142;11.516;2023-05-01T06:30:52;14.20;99.90
1806;DHT22;901;48.142;11.516;2023-05-01T06:33:19;14.40;99.90
1806;DHT22;901;48.142;11.516;2023-05-01T06:35:46;14.60;99.90
1806;DHT22;901;48.142;11.516;2023-05-01T06:38:13;14.70;99.90
1806;DHT22;901;48.142;11.516;2023-05-01T06:40:40;14.80;99.90
1806;DHT22;901;48.142;11.516;2023-05-01T06:43:09;14.90;99.90
1806;DHT22;901;48.142;11.516;2023-05-01T06:45:35;15.00;99.90
1806;DHT22;901;48.142;11.516;2023-05-01T06:48:04;15.10;99.90
1806;DHT22;901;48.142;11.516;2023-05-01T06:50:31;15.10;99.90
1806;DHT22;901;48.142;11.516;2023-05-01T06:52:58;15.20;99.90
1806;DHT22;901;48.142;11.516;2023-05-01T06:55:27;15.30;99.90
1806;DHT22;901;48.142;11.516;2023-05-01T06:57:55;15.50;99.90
1806;DHT22;901;48.142;11.516;2023-05-01T07:00:35;15.50;99.90
1806;DHT22;901;48.142;11.516;2023-05-01T07:03:10;15.50;99.90
1806;DHT22;901;48.142;11.516;2023-05-01T07:05:46;15.50;99.90
1806;DHT22;901;48.142;11.516;2023-05-01T07:08:13;15.50;99.90
1806;DHT22;901;48.142;11.516;2023-05-01T07:10:40;15.60;99.90
1806;DHT22;901;48.142;11.516;2023-05-01T07:13:07;15.70;99.90
1806;DHT22;901;48.142;11.516;2023-05-01T07:15:35;15.80;99.90
1806;DHT22;901;48.142;11.516;2023-05-01T07:18:02;15.90;99.90
1806;DHT22;901;48.142;11.516;2023-05-01T07:20:30;15.90;99.90
1806;DHT22;901;48.142;11.516;2023-05-01T07:22:57;16.00;99.90
1806;DHT22;901;48.142;11.516;2023-05-01T07:25:24;16.10;99.90
1806;DHT22;901;48.142;11.516;2023-05-01T07:27:50;16.20;99.90
1806;DHT22;901;48.142;11.516;2023-05-01T07:30:18;16.10;99.90
1806;DHT22;901;48.142;11.516;2023-05-01T07:32:47;16.20;99.90
1806;DHT22;901;48.142;11.516;2023-05-01T07:35:14;16.20;99.90
1806;DHT22;901;48.142;11.516;2023-05-01T07:37:40;16.20;99.90
1806;DHT22;901;48.142;11.516;2023-05-01T07:40:10;16.20;99.90
1806;DHT22;901;48.142;11.516;2023-05-01T07:42:37;16.00;99.90
1806;DHT22;901;48.142;11.516;2023-05-01T07:45:04;15.90;99.90
1806;DHT22;901;48.142;11.516;2023-05-01T07:47:31;15.70;99.90
1806;DHT22;901;48.142;11.516;2023-05-01T07:50:00;15.60;99.90
1806;DHT22;901;48.142;11.516;2023-05-01T07:52:27;15.60;99.90
1806;DHT22;901;48.142;11.516;2023-05-01T07:54:55;15.70;99.90
1806;DHT22;901;48.142;11.516;2023-05-01T07:57:21;15.70;99.90
1806;DHT22;901;48.142;11.516;2023-05-01T07:59:53;15.80;99.90
1806;DHT22;901;48.142;11.516;2023-05-01T08:02:20;15.90;99.90
1806;DHT22;901;48.142;11.516;2023-05-01T08:04:47;16.00;99.90
1806;DHT22;901;48.142;11.516;2023-05-01T08:07:15;16.00;99.90
1806;DHT22;901;48.142;11.516;2023-05-01T08:09:42;15.80;99.90
1806;DHT22;901;48.142;11.516;2023-05-01T08:12:08;15.80;99.90
1806;DHT22;901;48.142;11.516;2023-05-01T08:14:35;15.80;99.90
1806;DHT22;901;48.142;11.516;2023-05-01T08:17:02;15.90;99.90
1806;DHT22;901;48.142;11.516;2023-05-01T08:19:29;16.00;99.90
1806;DHT22;901;48.142;11.516;2023-05-01T08:21:56;16.10;99.90
1806;DHT22;901;48.142;11.516;2023-05-01T08:24:24;16.00;99.90
1806;DHT22;901;48.142;11.516;2023-05-01T08:26:51;16.00;99.90
1806;DHT22;901;48.142;11.516;2023-05-01T08:29:18;15.90;99.90
1806;DHT22;901;48.142;11.516;2023-05-01T08:31:45;15.80;99.90
1806;DHT22;901;48.142;11.516;2023-05-01T08:34:12;15.80;99.90
1806;DHT22;901;48.142;11.516;2023-05-01T08:36:38;15.80;99.90
1806;DHT22;901;48.142;11.516;2023-05-01T08:39:05;15.70;99.90
1806;DHT22;901;48.142;11.516;2023-05-01T08:41:33;15.40;99.90
1806;DHT22;901;48.142;11.516;2023-05-01T08:44:02;15.50;99.90
1806;DHT22;901;48.142;11.516;2023-05-01T08:46:36;15.40;99.90
1806;DHT22;901;48.142;11.516;2023-05-01T08:49:04;15.10;99.90
1806;DHT22;901;48.142;11.516;2023-05-01T08:51:31;15.00;99.90
1806;DHT22;901;48.142;11.516;2023-05-01T08:54:00;15.10;99.90
1806;DHT22;901;48.142;11.516;2023-05-01T08:56:29;15.00;99.90
1806;DHT22;901;48.142;11.516;2023-05-01T08:59:00;15.00;99.90
1806;DHT22;901;48.142;11.516;2023-05-01T09:01:29;15.10;99.90
1806;DHT22;901;48.142;11.516;2023-05-01T09:03:57;15.10;99.90
1806;DHT22;901;48.142;11.516;2023-05-01T09:06:24;14.90;99.90
1806;DHT22;901;48.142;11.516;2023-05-01T09:08:52;14.80;99.90
1806;DHT22;901;48.142;11.516;2023-05-01T09:11:20;14.50;99.90
1806;DHT22;901;48.142;11.516;2023-05-01T09:13:48;14.20;99.90
1806;DHT22;901;48.142;11.516;2023-05-01T09:16:16;14.30;99.90
1806;DHT22;901;48.142;11.516;2023-05-01T09:18:44;14.10;99.90
1806;DHT22;901;48.142;11.516;2023-05-01T09:21:11;14.00;99.90
1806;DHT22;901;48.142;11.516;2023-05-01T09:23:38;13.90;99.90
1806;DHT22;901;48.142;11.516;2023-05-01T09:26:05;13.70;99.90
1806;DHT22;901;48.142;11.516;2023-05-01T09:28:39;13.60;99.90
1806;DHT22;901;48.142;11.516;2023-05-01T09:31:21;13.50;99.90
1806;DHT22;901;48.142;11.516;2023-05-01T09:33:53;13.30;99.90
1806;DHT22;901;48.142;11.516;2023-05-01T09:36:20;13.30;99.90
1806;DHT22;901;48.142;11.516;2023-05-01T09:38:48;13.20;99.90
1806;DHT22;901;48.142;11.516;2023-05-01T09:41:15;13.20;99.90
1806;DHT22;901;48.142;11.516;2023-05-01T09:43:48;13.00;99.90
1806;DHT22;901;48.142;11.516;2023-05-01T09:46:16;13.10;99.90
1806;DHT22;901;48.142;11.516;2023-05-01T09:48:56;13.00;99.90
1806;DHT22;901;48.142;11.516;2023-05-01T09:51:25;12.90;99.90
1806;DHT22;901;48.142;11.516;2023-05-01T09:53:54;12.80;99.90
1806;DHT22;901;48.142;11.516;2023-05-01T09:56:21;12.80;99.90
1806;DHT22;901;48.142;11.516;2023-05-01T09:58:50;12.80;99.90
1806;DHT22;901;48.142;11.516;2023-05-01T10:01:17;12.80;99.90
1806;DHT22;901;48.142;11.516;2023-05-01T10:03:44;12.80;99.90
1806;DHT22;901;48.142;11.516;2023-05-01T10:06:25;12.70;99.90
1806;DHT22;901;48.142;11.516;2023-05-01T10:08:53;12.70;99.90
1806;DHT22;901;48.142;11.516;2023-05-01T10:11:20;12.80;99.90
1806;DHT22;901;48.142;11.516;2023-05-01T10:14:04;12.90;99.90
1806;DHT22;901;48.142;11.516;2023-05-01T10:16:33;13.00;99.90
1806;DHT22;901;48.142;11.516;2023-05-01T10:19:01;13.10;99.90
1806;DHT22;901;48.142;11.516;2023-05-01T10:21:30;13.10;99.90
1806;DHT22;901;48.142;11.516;2023-05-01T10:23:57;13.20;99.90
1806;DHT22;901;48.142;11.516;2023-05-01T10:26:25;13.10;99.90
1806;DHT22;901;48.142;11.516;2023-05-01T10:28:52;13.10;99.90
1806;DHT22;901;48.142;11.516;2023-05-01T10:31:19;13.10;99.90
1806;DHT22;901;48.142;11.516;2023-05-01T10:33:46;12.90;99.90
1806;DHT22;901;48.142;11.516;2023-05-01T10:36:18;12.80;99.90
1806;DHT22;901;48.142;11.516;2023-05-01T10:38:46;12.50;99.90
1806;DHT22;901;48.142;11.516;2023-05-01T10:41:14;12.50;99.90
1806;DHT22;901;48.142;11.516;2023-05-01T10:43:42;12.30;99.90
1806;DHT22;901;48.142;11.516;2023-05-01T10:46:35;12.20;99.90
1806;DHT22;901;48.142;11.516;2023-05-01T10:49:02;12.10;99.90
1806;DHT22;901;48.142;11.516;2023-05-01T10:51:29;11.80;99.90
1806;DHT22;901;48.142;11.516;2023-05-01T10:54:23;11.80;99.90
1806;DHT22;901;48.142;11.516;2023-05-01T10:56:51;11.60;99.90
1806;DHT22;901;48.142;11.516;2023-05-01T10:59:19;11.60;99.90
1806;DHT22;901;48.142;11.516;2023-05-01T11:01:46;11.50;99.90
1806;DHT22;901;48.142;11.516;2023-05-01T11:04:48;11.50;99.90
1806;DHT22;901;48.142;11.516;2023-05-01T11:07:21;11.60;99.90
1806;DHT22;901;48.142;11.516;2023-05-01T11:09:51;11.70;99.90
1806;DHT22;901;48.142;11.516;2023-05-01T11:15:30;11.80;99.90
1806;DHT22;901;48.142;11.516;2023-05-01T11:17:59;11.80;99.90
1806;DHT22;901;48.142;11.516;2023-05-01T11:20:59;11.80;99.90
1806;DHT22;901;48.142;11.516;2023-05-01T11:23:27;11.80;99.90
1806;DHT22;901;48.142;11.516;2023-05-01T11:26:02;11.90;99.90
1806;DHT22;901;48.142;11.516;2023-05-01T11:28:33;12.00;99.90
1806;DHT22;901;48.142;11.516;2023-05-01T11:30:59;12.00;99.90
1806;DHT22;901;48.142;11.516;2023-05-01T11:33:27;12.00;99.90
1806;DHT22;901;48.142;11.516;2023-05-01T11:36:01;12.00;99.90
1806;DHT22;901;48.142;11.516;2023-05-01T11:38:28;12.00;99.90
1806;DHT22;901;48.142;11.516;2023-05-01T11:40:58;12.10;99.90
1806;DHT22;901;48.142;11.516;2023-05-01T11:43:27;12.10;99.90
1806;DHT22;901;48.142;11.516;2023-05-01T11:45:54;12.00;99.90
1806;DHT22;901;48.142;11.516;2023-05-01T11:48:27;11.90;99.90
1806;DHT22;901;48.142;11.516;2023-05-01T11:50:54;12.00;99.90
1806;DHT22;901;48.142;11.516;2023-05-01T11:53:21;12.10;99.90
1806;DHT22;901;48.142;11.516;2023-05-01T11:55:48;12.30;99.90
1806;DHT22;901;48.142;11.516;2023-05-01T11:58:15;12.40;99.90
1806;DHT22;901;48.142;11.516;2023-05-01T12:00:44;12.60;99.90
1806;DHT22;901;48.142;11.516;2023-05-01T12:03:13;12.80;99.90
1806;DHT22;901;48.142;11.516;2023-05-01T12:05:42;12.80;99.90
1806;DHT22;901;48.142;11.516;2023-05-01T12:08:10;12.80;99.90
1806;DHT22;901;48.142;11.516;2023-05-01T12:10:39;12.90;99.90
1806;DHT22;901;48.142;11.516;2023-05-01T12:13:07;12.50;99.90
1806;DHT22;901;48.142;11.516;2023-05-01T12:15:35;13.30;99.90
1806;DHT22;901;48.142;11.516;2023-05-01T12:18:04;13.50;99.90
1806;DHT22;901;48.142;11.516;2023-05-01T12:20:38;13.60;99.90
1806;DHT22;901;48.142;11.516;2023-05-01T12:23:05;13.70;99.90
1806;DHT22;901;48.142;11.516;2023-05-01T12:25:34;13.60;99.90
1806;DHT22;901;48.142;11.516;2023-05-01T12:28:02;13.60;99.90
1806;DHT22;901;48.142;11.516;2023-05-01T12:30:29;13.80;99.90
1806;DHT22;901;48.142;11.516;2023-05-01T12:32:56;13.90;99.90
1806;DHT22;901;48.142;11.516;2023-05-01T12:35:29;14.00;99.90
1806;DHT22;901;48.142;11.516;2023-05-01T12:37:56;14.20;99.90
1806;DHT22;901;48.142;11.516;2023-05-01T12:40:24;14.30;99.90
1806;DHT22;901;48.142;11.516;2023-05-01T12:42:55;14.30;99.90
1806;DHT22;901;48.142;11.516;2023-05-01T12:45:22;14.20;99.90
1806;DHT22;901;48.142;11.516;2023-05-01T12:47:49;14.30;99.90
1806;DHT22;901;48.142;11.516;2023-05-01T12:50:17;14.30;99.90
1806;DHT22;901;48.142;11.516;2023-05-01T12:52:46;14.50;99.90
1806;DHT22;901;48.142;11.516;2023-05-01T12:55:13;14.70;99.90
1806;DHT22;901;48.142;11.516;2023-05-01T12:57:53;14.70;99.90
1806;DHT22;901;48.142;11.516;2023-05-01T13:00:20;14.80;99.90
1806;DHT22;901;48.142;11.516;2023-05-01T13:02:47;14.90;99.90
1806;DHT22;901;48.142;11.516;2023-05-01T13:05:14;15.00;99.90
1806;DHT22;901;48.142;11.516;2023-05-01T13:07:48;15.00;99.90
1806;DHT22;901;48.142;11.516;2023-05-01T13:10:28;15.20;99.90
1806;DHT22;901;48.142;11.516;2023-05-01T13:12:56;15.40;99.90
1806;DHT22;901;48.142;11.516;2023-05-01T13:15:23;15.20;99.90
1806;DHT22;901;48.142;11.516;2023-05-01T13:17:50;15.10;99.90
1806;DHT22;901;48.142;11.516;2023-05-01T13:20:25;15.20;99.90
1806;DHT22;901;48.142;11.516;2023-05-01T13:22:54;15.40;99.90
1806;DHT22;901;48.142;11.516;2023-05-01T13:25:21;15.60;99.90
1806;DHT22;901;48.142;11.516;2023-05-01T13:27:48;15.60;99.90
1806;DHT22;901;48.142;11.516;2023-05-01T13:30:17;15.60;99.90
1806;DHT22;901;48.142;11.516;2023-05-01T13:32:46;15.90;99.90
1806;DHT22;901;48.142;11.516;2023-05-01T13:35:21;16.30;99.90
1806;DHT22;901;48.142;11.516;2023-05-01T13:37:49;16.40;99.90
1806;DHT22;901;48.142;11.516;2023-05-01T13:40:18;16.80;99.90
1806;DHT22;901;48.142;11.516;2023-05-01T13:42:50;17.30;99.90
1806;DHT22;901;48.142;11.516;2023-05-01T13:45:18;17.70;99.90
1806;DHT22;901;48.142;11.516;2023-05-01T13:47:48;17.90;99.90
1806;DHT22;901;48.142;11.516;2023-05-01T13:50:16;18.20;99.90
1806;DHT22;901;48.142;11.516;2023-05-01T13:52:44;18.30;99.90
1806;DHT22;901;48.142;11.516;2023-05-01T13:55:11;18.50;99.90
1806;DHT22;901;48.142;11.516;2023-05-01T13:57:40;18.50;99.90
1806;DHT22;901;48.142;11.516;2023-05-01T14:00:09;18.00;99.90
1806;DHT22;901;48.142;11.516;2023-05-01T14:02:43;17.80;99.90
1806;DHT22;901;48.142;11.516;2023-05-01T14:05:10;17.90;99.90
1806;DHT22;901;48.142;11.516;2023-05-01T14:07:43;18.00;99.90
1806;DHT22;901;48.142;11.516;2023-05-01T14:10:11;18.00;99.90
1806;DHT22;901;48.142;11.516;2023-05-01T14:12:39;18.00;99.90
1806;DHT22;901;48.142;11.516;2023-05-01T14:15:08;18.20;99.90
1806;DHT22;901;48.142;11.516;2023-05-01T14:17:35;18.20;99.90
1806;DHT22;901;48.142;11.516;2023-05-01T14:20:04;18.20;99.90
1806;DHT22;901;48.142;11.516;2023-05-01T14:22:37;18.10;99.90
1806;DHT22;901;48.142;11.516;2023-05-01T14:25:23;18.10;99.90
1806;DHT22;901;48.142;11.516;2023-05-01T14:27:52;18.10;99.90
1806;DHT22;901;48.142;11.516;2023-05-01T14:30:27;18.20;99.90
1806;DHT22;901;48.142;11.516;2023-05-01T14:32:55;18.20;99.90
1806;DHT22;901;48.142;11.516;2023-05-01T14:35:23;18.10;99.90
1806;DHT22;901;48.142;11.516;2023-05-01T14:37:50;18.00;99.90
1806;DHT22;901;48.142;11.516;2023-05-01T14:40:20;18.20;99.90
1806;DHT22;901;48.142;11.516;2023-05-01T14:42:50;18.40;99.90
1806;DHT22;901;48.142;11.516;2023-05-01T14:45:17;18.60;99.90
1806;DHT22;901;48.142;11.516;2023-05-01T14:47:46;18.30;99.90
1806;DHT22;901;48.142;11.516;2023-05-01T14:50:18;18.50;99.90
1806;DHT22;901;48.142;11.516;2023-05-01T14:52:46;18.40;99.90
1806;DHT22;901;48.142;11.516;2023-05-01T14:55:16;18.40;99.90
1806;DHT22;901;48.142;11.516;2023-05-01T14:57:44;18.40;99.90
1806;DHT22;901;48.142;11.516;2023-05-01T15:00:14;18.40;99.90
1806;DHT22;901;48.142;11.516;2023-05-01T15:02:41;18.20;99.90
1806;DHT22;901;48.142;11.516;2023-05-01T15:05:08;18.30;99.90
1806;DHT22;901;48.142;11.516;2023-05-01T15:07:35;18.40;99.90
1806;DHT22;901;48.142;11.516;2023-05-01T15:10:02;18.40;99.90
1806;DHT22;901;48.142;11.516;2023-05-01T15:12:29;18.30;99.90
1806;DHT22;901;48.142;11.516;2023-05-01T15:14:56;17.90;99.90
1806;DHT22;901;48.142;11.516;2023-05-01T15:17:24;17.60;99.90
1806;DHT22;901;48.142;11.516;2023-05-01T15:19:51;17.50;99.90
1806;DHT22;901;48.142;11.516;2023-05-01T15:22:18;17.30;99.90
1806;DHT22;901;48.142;11.516;2023-05-01T15:24:45;17.20;99.90
1806;DHT22;901;48.142;11.516;2023-05-01T15:27:12;17.20;99.90
1806;DHT22;901;48.142;11.516;2023-05-01T15:29:38;17.10;99.90
1806;DHT22;901;48.142;11.516;2023-05-01T15:32:05;16.90;99.90
1806;DHT22;901;48.142;11.516;2023-05-01T15:34:34;16.90;99.90
1806;DHT22;901;48.142;11.516;2023-05-01T15:37:00;17.00;99.90
1806;DHT22;901;48.142;11.516;2023-05-01T15:39:28;16.90;99.90
1806;DHT22;901;48.142;11.516;2023-05-01T15:41:55;16.90;99.90
1806;DHT22;901;48.142;11.516;2023-05-01T15:44:21;16.90;99.90
1806;DHT22;901;48.142;11.516;2023-05-01T15:46:48;16.90;99.90
1806;DHT22;901;48.142;11.516;2023-05-01T15:49:15;16.90;99.90
1806;DHT22;901;48.142;11.516;2023-05-01T15:51:44;16.80;99.90
1806;DHT22;901;48.142;11.516;2023-05-01T15:54:11;16.70;99.90
1806;DHT22;901;48.142;11.516;2023-05-01T15:56:38;16.70;99.90
1806;DHT22;901;48.142;11.516;2023-05-01T15:59:06;16.70;99.90
1806;DHT22;901;48.142;11.516;2023-05-01T16:01:34;16.60;99.90
1806;DHT22;901;48.142;11.516;2023-05-01T16:04:02;16.60;99.90
1806;DHT22;901;48.142;11.516;2023-05-01T16:06:29;16.40;99.90
1806;DHT22;901;48.142;11.516;2023-05-01T16:08:58;16.30;99.90
1806;DHT22;901;48.142;11.516;2023-05-01T16:11:24;16.20;99.90
1806;DHT22;901;48.142;11.516;2023-05-01T16:13:52;16.10;99.90
1806;DHT22;901;48.142;11.516;2023-05-01T16:16:23;16.00;99.90
1806;DHT22;901;48.142;11.516;2023-05-01T16:18:54;15.90;99.90
1806;DHT22;901;48.142;11.516;2023-05-01T16:21:22;15.80;99.90
1806;DHT22;901;48.142;11.516;2023-05-01T16:23:50;15.70;99.90